Time;durP1;ratioP1;P1;durP2;ratioP2;P2;SDS_P1;SDS_P2;PMS_P1;PMS_P2;Temp;Humidity;BMP_temperature;BMP_pressure;BME280_temperature;BME280_humidity;BME280_pressure;Samples;Min_cycle;Max_cycle;Signal;HPM_P1;HPM_P2
2023/05/28 00:00:45;;;;;;;4.65;3.60;;;;;;;;;;2041103;29;20543;-88
2023/05/28 00:01:46;;;;;;;6.45;4.53;;;;;;;;;;2040484;29;20042;-90
2023/05/28 00:02:47;;;;;;;6.28;4.00;;;;;;;;;;2040273;29;20501;-91
2023/05/28 00:03:48;;;;;;;4.93;4.10;;;;;;;;;;2032972;29;20067;-90
2023/05/28 00:04:49;;;;;;;3.85;3.35;;;;;;;;;;2032741;29;20035;-90
2023/05/28 00:05:49;;;;;;;4.22;3.50;;;;;;;;;;2041823;29;20525;-88
2023/05/28 00:06:55;;;;;;;4.32;3.70;;;;;;;;;;2035933;29;20032;-89
2023/05/28 00:07:58;;;;;;;5.80;3.90;;;;;;;;;;2040404;29;20413;-89
2023/05/28 00:09:00;;;;;;;6.03;3.65;;;;;;;;;;2040244;29;20038;-90
2023/05/28 00:10:01;;;;;;;4.05;3.65;;;;;;;;;;2040283;29;20123;-90
2023/05/28 00:11:02;;;;;;;5.50;3.95;;;;;;;;;;2041085;29;20032;-90
2023/05/28 00:12:03;;;;;;;5.85;4.00;;;;;;;;;;2040398;29;20475;-90
2023/05/28 00:13:03;;;;;;;4.35;3.45;;;;;;;;;;2032838;29;20024;-90
2023/05/28 00:14:04;;;;;;;4.47;4.07;;;;;;;;;;2040826;29;20173;-90
2023/05/28 00:15:05;;;;;;;5.45;3.67;;;;;;;;;;2040908;29;20127;-90
2023/05/28 00:16:08;;;;;;;5.47;3.78;;;;;;;;;;2032824;29;20486;-90
2023/05/28 00:17:09;;;;;;;5.30;4.35;;;;;;;;;;2033236;29;20154;-90
2023/05/28 00:18:11;;;;;;;5.13;3.83;;;;;;;;;;2040911;29;20464;-90
2023/05/28 00:19:12;;;;;;;4.93;4.15;;;;;;;;;;2041578;29;20070;-88
2023/05/28 00:20:12;;;;;;;5.00;4.07;;;;;;;;;;2033538;29;20039;-90
2023/05/28 00:21:12;;;;;;;4.72;4.07;;;;;;;;;;2040611;29;20039;-89
2023/05/28 00:22:13;;;;;;;5.30;4.15;;;;;;;;;;2032378;29;20036;-90
2023/05/28 00:23:14;;;;;;;6.53;4.28;;;;;;;;;;2032810;29;20388;-89
2023/05/28 00:24:15;;;;;;;4.90;3.53;;;;;;;;;;2040658;29;20384;-89
2023/05/28 00:25:15;;;;;;;5.15;3.97;;;;;;;;;;2041283;29;20051;-90
2023/05/28 00:26:16;;;;;;;5.82;3.88;;;;;;;;;;2041541;29;20523;-90
2023/05/28 00:27:16;;;;;;;5.05;3.88;;;;;;;;;;2040631;29;20449;-90
2023/05/28 00:28:17;;;;;;;7.40;3.88;;;;;;;;;;2040913;29;20023;-89
2023/05/28 00:29:17;;;;;;;5.72;4.28;;;;;;;;;;2041421;29;20480;-89
2023/05/28 00:30:18;;;;;;;4.60;3.70;;;;;;;;;;2041823;29;20028;-89
2023/05/28 00:31:19;;;;;;;5.03;4.30;;;;;;;;;;2041237;29;20023;-90
2023/05/28 00:32:20;;;;;;;5.53;4.50;;;;;;;;;;2041796;29;20028;-90
2023/05/28 00:33:21;;;;;;;8.50;4.15;;;;;;;;;;2044828;29;20102;-86
2023/05/28 00:34:22;;;;;;;6.00;4.32;;;;;;;;;;2048054;29;20007;-88
2023/05/28 00:35:22;;;;;;;5.80;4.38;;;;;;;;;;2044417;29;20056;-88
2023/05/28 00:36:26;;;;;;;6.55;3.97;;;;;;;;;;2037584;29;20071;-89
2023/05/28 00:37:28;;;;;;;4.68;3.92;;;;;;;;;;2046275;29;20055;-89
2023/05/28 00:38:29;;;;;;;6.13;3.92;;;;;;;;;;2041639;29;20024;-91
2023/05/28 00:39:29;;;;;;;5.50;4.10;;;;;;;;;;2041169;29;20039;-92
2023/05/28 00:40:30;;;;;;;5.53;4.43;;;;;;;;;;1699079;29;10053728;-89
2023/05/28 00:41:35;;;;;;;6.03;4.20;;;;;;;;;;2041266;29;20054;-90
2023/05/28 00:42:36;;;;;;;6.25;3.97;;;;;;;;;;2041138;29;20035;-91
2023/05/28 00:43:36;;;;;;;7.32;4.57;;;;;;;;;;2041799;29;20039;-91
2023/05/28 00:44:39;;;;;;;5.55;4.35;;;;;;;;;;2042245;29;20027;-90
2023/05/28 00:45:39;;;;;;;5.50;4.32;;;;;;;;;;2043652;29;20031;-90
2023/05/28 00:46:42;;;;;;;6.32;4.53;;;;;;;;;;2023618;29;20107;-90
2023/05/28 00:47:43;;;;;;;6.75;4.45;;;;;;;;;;2042467;29;20051;-90
2023/05/28 00:48:44;;;;;;;6.65;4.30;;;;;;;;;;2042365;29;20039;-90
2023/05/28 00:49:48;;;;;;;7.68;4.50;;;;;;;;;;2048540;29;20079;-91
2023/05/28 00:50:52;;;;;;;6.10;4.72;;;;;;;;;;2051110;29;20027;-89
2023/05/28 00:51:54;;;;;;;5.28;4.45;;;;;;;;;;2050698;29;20020;-90
2023/05/28 00:52:55;;;;;;;5.50;4.50;;;;;;;;;;2050197;29;20062;-90
2023/05/28 00:53:56;;;;;;;5.88;4.55;;;;;;;;;;2048344;29;20024;-89
2023/05/28 00:54:57;;;;;;;6.43;4.82;;;;;;;;;;2043781;29;20051;-91
2023/05/28 00:56:00;;;;;;;7.15;4.78;;;;;;;;;;2041971;29;20212;-90
2023/05/28 00:57:09;;;;;;;5.90;4.90;;;;;;;;;;2042561;29;20460;-89
2023/05/28 00:58:10;;;;;;;6.32;5.07;;;;;;;;;;2043593;29;20106;-91
2023/05/28 00:59:12;;;;;;;6.07;4.65;;;;;;;;;;2041015;29;20028;-91
2023/05/28 01:00:15;;;;;;;5.57;4.32;;;;;;;;;;2032889;29;20039;-90
2023/05/28 01:01:17;;;;;;;6.60;4.93;;;;;;;;;;2033214;29;20065;-90
2023/05/28 01:02:18;;;;;;;6.47;4.88;;;;;;;;;;2040722;29;20034;-90
2023/05/28 01:03:18;;;;;;;8.02;4.63;;;;;;;;;;2040476;29;20031;-89
2023/05/28 01:04:19;;;;;;;7.07;5.47;;;;;;;;;;2040495;29;20087;-89
2023/05/28 01:05:19;;;;;;;6.75;5.07;;;;;;;;;;2040767;29;20046;-90
2023/05/28 01:06:21;;;;;;;5.85;4.75;;;;;;;;;;2040548;29;20138;-89
2023/05/28 01:07:22;;;;;;;6.20;4.93;;;;;;;;;;2040454;29;20023;-89
2023/05/28 01:08:23;;;;;;;7.38;5.28;;;;;;;;;;2043644;29;20294;-90
2023/05/28 01:09:27;;;;;;;6.88;5.30;;;;;;;;;;2050136;29;20016;-90
2023/05/28 01:10:28;;;;;;;6.38;4.65;;;;;;;;;;2051205;29;20016;-90
2023/05/28 01:11:29;;;;;;;6.78;5.22;;;;;;;;;;2041633;29;20100;-90
2023/05/28 01:12:31;;;;;;;5.60;4.40;;;;;;;;;;2040919;29;20055;-89
2023/05/28 01:13:32;;;;;;;7.20;4.90;;;;;;;;;;2036247;29;20024;-89
2023/05/28 01:14:33;;;;;;;7.50;5.35;;;;;;;;;;2033362;29;20080;-89
2023/05/28 01:15:35;;;;;;;6.95;5.07;;;;;;;;;;2032912;29;20028;-90
2023/05/28 01:16:36;;;;;;;7.05;5.07;;;;;;;;;;2040403;29;20444;-90
2023/05/28 01:17:38;;;;;;;6.75;5.03;;;;;;;;;;2041001;29;20035;-89
2023/05/28 01:18:39;;;;;;;6.85;5.43;;;;;;;;;;2041052;29;20039;-89
2023/05/28 01:19:42;;;;;;;7.30;5.57;;;;;;;;;;2040878;29;20036;-90
2023/05/28 01:20:42;;;;;;;6.63;4.88;;;;;;;;;;2041223;29;20059;-90
2023/05/28 01:21:45;;;;;;;6.15;5.43;;;;;;;;;;2041365;29;20035;-89
2023/05/28 01:22:57;;;;;;;8.32;5.65;;;;;;;;;;2040410;29;20023;-88
2023/05/28 01:24:01;;;;;;;7.65;5.57;;;;;;;;;;2040198;29;20027;-89
2023/05/28 01:25:09;;;;;;;7.80;6.15;;;;;;;;;;2040138;29;20067;-91
2023/05/28 01:26:12;;;;;;;8.80;6.28;;;;;;;;;;2043173;29;20059;-89
2023/05/28 01:27:12;;;;;;;6.72;5.72;;;;;;;;;;2040200;29;20040;-91
2023/05/28 01:28:13;;;;;;;9.43;6.32;;;;;;;;;;2039715;29;20044;-89
2023/05/28 01:29:17;;;;;;;7.70;6.53;;;;;;;;;;2040911;29;20498;-90
2023/05/28 01:30:18;;;;;;;8.20;6.05;;;;;;;;;;2040102;29;20060;-90
2023/05/28 01:31:18;;;;;;;6.00;5.32;;;;;;;;;;2040215;29;20024;-90
2023/05/28 01:32:19;;;;;;;6.97;5.43;;;;;;;;;;2040188;29;20031;-91
2023/05/28 01:33:24;;;;;;;7.18;5.47;;;;;;;;;;2039971;29;20027;-89
2023/05/28 01:34:24;;;;;;;6.57;5.53;;;;;;;;;;2040657;29;20016;-91
2023/05/28 01:35:25;;;;;;;7.20;5.63;;;;;;;;;;2041059;29;20564;-91
2023/05/28 01:36:31;;;;;;;8.13;5.60;;;;;;;;;;2040449;29;20557;-90
2023/05/28 01:37:35;;;;;;;5.88;5.07;;;;;;;;;;2040944;29;20103;-90
2023/05/28 01:38:39;;;;;;;8.43;4.78;;;;;;;;;;2042225;29;20353;-90
2023/05/28 01:39:44;;;;;;;7.63;4.95;;;;;;;;;;2040926;29;20114;-89
2023/05/28 01:40:48;;;;;;;7.38;4.93;;;;;;;;;;2040218;29;20389;-91
2023/05/28 01:41:51;;;;;;;5.65;4.80;;;;;;;;;;2033112;29;20424;-88
2023/05/28 01:42:55;;;;;;;8.18;4.90;;;;;;;;;;2032820;29;20119;-90
2023/05/28 01:43:56;;;;;;;7.20;5.20;;;;;;;;;;2032491;29;20119;-90
2023/05/28 01:44:57;;;;;;;5.38;4.50;;;;;;;;;;2040228;29;20043;-90
2023/05/28 01:45:58;;;;;;;7.53;5.00;;;;;;;;;;2041040;29;20035;-90
2023/05/28 01:47:01;;;;;;;5.82;4.88;;;;;;;;;;2040524;29;20131;-91
2023/05/28 01:48:02;;;;;;;7.78;5.20;;;;;;;;;;2041857;29;20059;-90
2023/05/28 01:49:03;;;;;;;5.93;4.18;;;;;;;;;;2035993;29;20099;-90
2023/05/28 01:50:04;;;;;;;7.32;4.88;;;;;;;;;;2032558;29;20058;-91
2023/05/28 01:51:07;;;;;;;6.32;4.72;;;;;;;;;;2040549;29;20028;-90
2023/05/28 01:52:08;;;;;;;6.72;4.93;;;;;;;;;;2040105;29;20452;-90
2023/05/28 01:53:08;;;;;;;5.47;4.88;;;;;;;;;;2040518;29;20050;-89
2023/05/28 01:54:20;;;;;;;5.05;4.53;;;;;;;;;;2040724;29;20457;-91
2023/05/28 01:55:23;;;;;;;5.38;4.35;;;;;;;;;;2033897;29;20079;-90
2023/05/28 01:56:23;;;;;;;5.22;4.22;;;;;;;;;;2040384;29;20032;-90
2023/05/28 01:57:24;;;;;;;5.63;4.15;;;;;;;;;;2040483;29;20031;-90
2023/05/28 01:58:25;;;;;;;9.20;5.15;;;;;;;;;;2040515;29;20055;-92
2023/05/28 01:59:25;;;;;;;6.13;4.75;;;;;;;;;;2040467;29;20612;-91
2023/05/28 02:00:26;;;;;;;6.80;3.92;;;;;;;;;;2040714;29;20024;-90
2023/05/28 02:01:34;;;;;;;9.60;4.85;;;;;;;;;;2039450;29;20025;-90
2023/05/28 02:02:34;;;;;;;5.78;4.47;;;;;;;;;;2043301;29;20396;-91
2023/05/28 02:03:35;;;;;;;6.40;4.40;;;;;;;;;;1690837;29;10307584;-92
2023/05/28 02:04:35;;;;;;;8.23;4.47;;;;;;;;;;2041132;29;20034;-91
2023/05/28 02:05:36;;;;;;;4.45;3.95;;;;;;;;;;2040455;29;20027;-91
2023/05/28 02:06:37;;;;;;;6.10;4.32;;;;;;;;;;2034836;29;20036;-90
2023/05/28 02:07:37;;;;;;;5.00;4.10;;;;;;;;;;2047452;29;20124;-90
2023/05/28 02:08:38;;;;;;;6.45;4.18;;;;;;;;;;2039579;29;20036;-88
2023/05/28 02:09:38;;;;;;;6.75;4.38;;;;;;;;;;2036943;29;20135;-90
2023/05/28 02:10:38;;;;;;;6.13;4.72;;;;;;;;;;2045878;29;20051;-91
2023/05/28 02:11:39;;;;;;;5.32;4.28;;;;;;;;;;2047483;29;20035;-91
2023/05/28 02:12:42;;;;;;;5.32;4.18;;;;;;;;;;2044697;29;20082;-92
2023/05/28 02:13:43;;;;;;;6.18;4.13;;;;;;;;;;2032863;29;20035;-91
2023/05/28 02:14:44;;;;;;;4.65;3.90;;;;;;;;;;2032266;29;20067;-91
2023/05/28 02:15:45;;;;;;;5.07;4.40;;;;;;;;;;2040342;29;20118;-90
2023/05/28 02:16:49;;;;;;;4.70;4.05;;;;;;;;;;2039947;29;20055;-91
2023/05/28 02:17:49;;;;;;;4.80;4.30;;;;;;;;;;2040404;29;20039;-90
2023/05/28 02:18:52;;;;;;;5.90;4.45;;;;;;;;;;2040073;29;20119;-91
2023/05/28 02:19:53;;;;;;;5.95;4.40;;;;;;;;;;2040202;29;20039;-91
2023/05/28 02:20:54;;;;;;;6.78;4.55;;;;;;;;;;2032361;29;20027;-92
2023/05/28 02:21:55;;;;;;;5.55;4.50;;;;;;;;;;1689271;29;10308944;-92
2023/05/28 02:22:56;;;;;;;6.80;4.80;;;;;;;;;;2039800;29;20237;-92
2023/05/28 02:23:56;;;;;;;7.05;5.15;;;;;;;;;;2039916;29;20024;-91
2023/05/28 02:24:57;;;;;;;7.53;5.97;;;;;;;;;;2039758;29;20042;-91
2023/05/28 02:25:57;;;;;;;7.55;6.00;;;;;;;;;;2039856;29;20515;-91
2023/05/28 02:26:58;;;;;;;7.10;5.57;;;;;;;;;;2039843;29;20503;-91
2023/05/28 02:27:58;;;;;;;7.55;4.78;;;;;;;;;;2040649;29;20039;-91
2023/05/28 02:29:01;;;;;;;5.97;4.90;;;;;;;;;;2040622;29;20028;-91
2023/05/28 02:30:02;;;;;;;6.00;4.62;;;;;;;;;;1699071;29;10002403;-91
2023/05/28 02:31:03;;;;;;;7.47;4.85;;;;;;;;;;2039885;29;20032;-92
2023/05/28 02:32:03;;;;;;;7.68;5.45;;;;;;;;;;2040240;29;20032;-92
2023/05/28 02:33:04;;;;;;;6.82;5.45;;;;;;;;;;2040078;29;20059;-92
2023/05/28 02:34:05;;;;;;;10.55;4.90;;;;;;;;;;2040584;29;20059;-91
2023/05/28 02:35:06;;;;;;;8.63;5.15;;;;;;;;;;2039730;29;20040;-90
2023/05/28 02:36:07;;;;;;;8.07;5.20;;;;;;;;;;2039410;29;20126;-90
2023/05/28 02:37:09;;;;;;;6.03;4.80;;;;;;;;;;2039860;29;20024;-91
2023/05/28 02:38:09;;;;;;;7.00;5.30;;;;;;;;;;2039811;29;20035;-90
2023/05/28 02:39:10;;;;;;;8.35;5.45;;;;;;;;;;2040122;29;20031;-90
2023/05/28 02:40:11;;;;;;;6.60;4.75;;;;;;;;;;2040123;29;20114;-91
2023/05/28 02:41:11;;;;;;;7.75;5.10;;;;;;;;;;2040047;29;20500;-91
2023/05/28 02:42:14;;;;;;;6.75;5.20;;;;;;;;;;2032217;29;20528;-91
2023/05/28 02:43:15;;;;;;;6.55;5.25;;;;;;;;;;2039656;29;20090;-89
2023/05/28 02:44:16;;;;;;;7.25;5.00;;;;;;;;;;2039583;29;20035;-89
2023/05/28 02:45:16;;;;;;;6.45;4.65;;;;;;;;;;2039773;29;20027;-89
2023/05/28 02:46:16;;;;;;;7.75;4.57;;;;;;;;;;2039656;29;20047;-90
2023/05/28 02:47:17;;;;;;;5.63;4.32;;;;;;;;;;2039390;29;20024;-88
2023/05/28 02:48:17;;;;;;;5.50;4.65;;;;;;;;;;2031543;29;20024;-90
2023/05/28 02:49:20;;;;;;;6.15;4.15;;;;;;;;;;2031738;29;20040;-90
2023/05/28 02:50:21;;;;;;;6.43;4.40;;;;;;;;;;2031900;29;20477;-90
2023/05/28 02:51:21;;;;;;;5.85;4.45;;;;;;;;;;2031794;29;20059;-91
2023/05/28 02:52:24;;;;;;;6.63;4.50;;;;;;;;;;2031825;29;20028;-90
2023/05/28 02:53:30;;;;;;;4.97;4.10;;;;;;;;;;2039734;29;20027;-90
2023/05/28 02:54:30;;;;;;;5.88;4.45;;;;;;;;;;2039689;29;20039;-91
2023/05/28 02:55:33;;;;;;;6.20;4.57;;;;;;;;;;2039451;29;20024;-91
2023/05/28 02:56:33;;;;;;;6.60;4.97;;;;;;;;;;2031974;29;20028;-90
2023/05/28 02:57:34;;;;;;;7.50;5.55;;;;;;;;;;2032063;29;20028;-89
2023/05/28 02:58:36;;;;;;;8.15;5.20;;;;;;;;;;2039695;29;20075;-90
2023/05/28 02:59:36;;;;;;;5.13;4.40;;;;;;;;;;2039765;29;20519;-90
2023/05/28 03:00:36;;;;;;;9.73;5.65;;;;;;;;;;2039805;29;20031;-90
2023/05/28 03:01:37;;;;;;;10.18;7.85;;;;;;;;;;2039533;29;20031;-90
2023/05/28 03:02:37;;;;;;;9.48;7.43;;;;;;;;;;2031742;29;20059;-90
2023/05/28 03:03:38;;;;;;;10.40;7.95;;;;;;;;;;2039656;29;20483;-90
2023/05/28 03:04:38;;;;;;;12.98;8.20;;;;;;;;;;2040518;29;20396;-90
2023/05/28 03:05:42;;;;;;;22.70;16.65;;;;;;;;;;2039448;29;20036;-90
2023/05/28 03:06:43;;;;;;;22.15;15.30;;;;;;;;;;2039392;29;20028;-89
2023/05/28 03:07:43;;;;;;;18.83;13.10;;;;;;;;;;2031397;29;20028;-89
2023/05/28 03:08:44;;;;;;;20.50;12.23;;;;;;;;;;2039312;29;20058;-89
2023/05/28 03:09:44;;;;;;;18.77;11.02;;;;;;;;;;2031693;29;20092;-89
2023/05/28 03:10:44;;;;;;;18.35;11.93;;;;;;;;;;2039401;29;20086;-89
2023/05/28 03:11:45;;;;;;;20.50;11.38;;;;;;;;;;2039815;29;20043;-87
2023/05/28 03:12:45;;;;;;;19.20;11.98;;;;;;;;;;2040757;29;20111;-88
2023/05/28 03:13:46;;;;;;;17.23;11.10;;;;;;;;;;2041466;29;20036;-88
2023/05/28 03:14:46;;;;;;;15.10;10.10;;;;;;;;;;2040567;29;20086;-88
2023/05/28 03:15:47;;;;;;;15.38;9.50;;;;;;;;;;2040555;29;20046;-87
2023/05/28 03:16:47;;;;;;;13.48;9.20;;;;;;;;;;2041530;29;20111;-86
2023/05/28 03:17:48;;;;;;;13.60;8.82;;;;;;;;;;2041760;29;20039;-87
2023/05/28 03:18:48;;;;;;;10.85;6.90;;;;;;;;;;2041015;29;20027;-88
2023/05/28 03:19:48;;;;;;;9.52;6.05;;;;;;;;;;2051205;29;20038;-87
2023/05/28 03:20:49;;;;;;;10.35;6.40;;;;;;;;;;2050913;29;20549;-88
2023/05/28 03:21:49;;;;;;;7.72;6.22;;;;;;;;;;2041357;29;20032;-88
2023/05/28 03:22:56;;;;;;;8.57;6.18;;;;;;;;;;2043318;29;20040;-88
2023/05/28 03:23:56;;;;;;;6.72;5.32;;;;;;;;;;2043046;29;20028;-88
2023/05/28 03:24:57;;;;;;;7.00;5.35;;;;;;;;;;2037563;29;20164;-88
2023/05/28 03:25:57;;;;;;;7.70;5.50;;;;;;;;;;2041720;29;20085;-88
2023/05/28 03:26:59;;;;;;;7.00;5.50;;;;;;;;;;2040935;29;20031;-88
2023/05/28 03:28:00;;;;;;;7.18;5.68;;;;;;;;;;2033463;29;20040;-88
2023/05/28 03:29:00;;;;;;;8.70;5.47;;;;;;;;;;2041035;29;20475;-88
2023/05/28 03:30:01;;;;;;;8.05;5.30;;;;;;;;;;2042079;29;20049;-87
2023/05/28 03:31:01;;;;;;;7.93;6.10;;;;;;;;;;2046447;29;20042;-88
2023/05/28 03:32:02;;;;;;;5.93;5.15;;;;;;;;;;1692819;29;10222285;-88
2023/05/28 03:33:02;;;;;;;6.28;5.28;;;;;;;;;;2040297;29;20028;-88
2023/05/28 03:34:03;;;;;;;9.63;5.75;;;;;;;;;;2040606;29;20098;-88
2023/05/28 03:35:04;;;;;;;6.68;5.15;;;;;;;;;;2040252;29;20028;-88
2023/05/28 03:36:06;;;;;;;9.68;5.70;;;;;;;;;;2040387;29;20020;-88
2023/05/28 03:37:07;;;;;;;6.85;5.63;;;;;;;;;;2041316;28;20027;-88
2023/05/28 03:38:07;;;;;;;8.45;5.78;;;;;;;;;;2041780;29;20091;-88
2023/05/28 03:39:08;;;;;;;7.82;5.60;;;;;;;;;;2043812;29;20051;-87
2023/05/28 03:40:09;;;;;;;6.03;5.18;;;;;;;;;;2051288;29;20020;-88
2023/05/28 03:41:10;;;;;;;7.30;5.90;;;;;;;;;;2050954;29;20020;-88
2023/05/28 03:42:10;;;;;;;8.13;5.97;;;;;;;;;;2050131;29;20043;-88
2023/05/28 03:43:11;;;;;;;7.53;5.55;;;;;;;;;;2048608;29;20036;-88
2023/05/28 03:44:11;;;;;;;6.82;5.43;;;;;;;;;;2042381;29;20023;-88
2023/05/28 03:45:12;;;;;;;6.55;5.50;;;;;;;;;;2041730;29;20063;-88
2023/05/28 03:46:12;;;;;;;6.43;4.93;;;;;;;;;;2042428;29;20424;-87
2023/05/28 03:47:13;;;;;;;8.60;5.60;;;;;;;;;;2043342;29;20110;-85
2023/05/28 03:48:14;;;;;;;6.55;5.28;;;;;;;;;;2035409;29;20027;-86
2023/05/28 03:49:14;;;;;;;7.35;5.50;;;;;;;;;;2043182;29;20043;-87
2023/05/28 03:50:15;;;;;;;7.22;5.35;;;;;;;;;;2043830;29;20083;-87
2023/05/28 03:51:16;;;;;;;8.27;4.88;;;;;;;;;;2040939;29;20059;-88
2023/05/28 03:52:16;;;;;;;6.82;4.63;;;;;;;;;;2040581;29;20098;-88
2023/05/28 03:53:16;;;;;;;7.90;5.28;;;;;;;;;;2040649;29;20201;-88
2023/05/28 03:54:17;;;;;;;6.38;4.63;;;;;;;;;;2032738;29;20318;-88
2023/05/28 03:55:17;;;;;;;8.57;5.35;;;;;;;;;;2040746;29;20026;-89
2023/05/28 03:56:21;;;;;;;7.45;4.93;;;;;;;;;;2040887;29;20024;-88
2023/05/28 03:57:23;;;;;;;7.22;4.97;;;;;;;;;;2041058;29;20236;-88
2023/05/28 03:58:24;;;;;;;8.50;5.70;;;;;;;;;;2041637;29;20035;-87
2023/05/28 03:59:24;;;;;;;9.82;5.30;;;;;;;;;;2042327;29;20039;-87
2023/05/28 04:00:25;;;;;;;6.47;5.28;;;;;;;;;;2041913;29;20043;-88
2023/05/28 04:01:26;;;;;;;7.57;5.57;;;;;;;;;;2041904;29;20032;-89
2023/05/28 04:02:26;;;;;;;6.32;4.95;;;;;;;;;;2041053;29;20020;-88
2023/05/28 04:03:27;;;;;;;7.75;5.05;;;;;;;;;;2033425;29;20099;-89
2023/05/28 04:04:27;;;;;;;9.75;5.57;;;;;;;;;;2032610;29;20020;-89
2023/05/28 04:05:27;;;;;;;9.13;5.40;;;;;;;;;;2033144;29;20111;-90
2023/05/28 04:06:28;;;;;;;6.90;5.45;;;;;;;;;;2040940;29;20059;-89
2023/05/28 04:07:31;;;;;;;8.80;5.82;;;;;;;;;;2040557;29;20119;-90
2023/05/28 04:08:33;;;;;;;8.80;5.68;;;;;;;;;;2033223;29;20031;-89
2023/05/28 04:09:33;;;;;;;7.80;5.38;;;;;;;;;;1692095;29;10241200;-89
2023/05/28 04:10:33;;;;;;;8.43;5.35;;;;;;;;;;2040922;29;20050;-87
2023/05/28 04:11:34;;;;;;;6.13;5.25;;;;;;;;;;1693986;29;10179375;-88
2023/05/28 04:12:35;;;;;;;9.75;5.93;;;;;;;;;;2039845;29;20023;-88
2023/05/28 04:13:35;;;;;;;8.40;5.28;;;;;;;;;;2040433;29;20102;-88
2023/05/28 04:14:36;;;;;;;6.65;5.45;;;;;;;;;;2040361;29;20023;-88
2023/05/28 04:15:36;;;;;;;5.70;4.88;;;;;;;;;;2040529;29;20035;-88
2023/05/28 04:16:37;;;;;;;9.13;5.03;;;;;;;;;;2040119;29;20147;-88
2023/05/28 04:17:37;;;;;;;7.00;5.07;;;;;;;;;;2041160;29;20024;-90
2023/05/28 04:18:38;;;;;;;6.22;5.15;;;;;;;;;;2040602;29;20047;-90
2023/05/28 04:19:39;;;;;;;6.90;5.45;;;;;;;;;;2016402;29;20860;-90
2023/05/28 04:20:41;;;;;;;6.82;5.32;;;;;;;;;;2047849;29;20034;-90
2023/05/28 04:21:42;;;;;;;7.85;5.57;;;;;;;;;;2047122;29;20111;-88
2023/05/28 04:22:42;;;;;;;7.85;4.97;;;;;;;;;;2042014;29;20118;-89
2023/05/28 04:23:43;;;;;;;7.78;4.60;;;;;;;;;;2039659;29;20020;-90
2023/05/28 04:24:43;;;;;;;8.85;6.57;;;;;;;;;;2031335;29;20035;-91
2023/05/28 04:25:44;;;;;;;8.60;5.47;;;;;;;;;;2040040;29;20028;-89
2023/05/28 04:26:46;;;;;;;6.88;5.20;;;;;;;;;;2040565;29;20476;-90
2023/05/28 04:27:47;;;;;;;6.50;4.72;;;;;;;;;;2039735;29;20075;-90
2023/05/28 04:28:48;;;;;;;8.32;5.70;;;;;;;;;;2039989;29;20036;-90
2023/05/28 04:29:48;;;;;;;7.85;5.50;;;;;;;;;;2039860;29;20028;-90
2023/05/28 04:30:50;;;;;;;8.38;6.03;;;;;;;;;;2032345;29;20024;-90
2023/05/28 04:31:50;;;;;;;7.63;5.88;;;;;;;;;;2040383;29;20107;-90
2023/05/28 04:32:53;;;;;;;8.80;5.57;;;;;;;;;;2040651;29;20062;-90
2023/05/28 04:33:54;;;;;;;7.80;5.10;;;;;;;;;;2040710;29;20066;-91
2023/05/28 04:34:54;;;;;;;6.47;5.13;;;;;;;;;;2040369;29;20529;-89
2023/05/28 04:35:56;;;;;;;7.95;5.40;;;;;;;;;;2040325;29;20027;-90
2023/05/28 04:36:58;;;;;;;8.40;5.80;;;;;;;;;;2040319;29;20183;-90
2023/05/28 04:37:59;;;;;;;7.28;5.80;;;;;;;;;;2040353;29;20070;-90
2023/05/28 04:39:04;;;;;;;6.65;5.47;;;;;;;;;;2040843;29;20048;-90
2023/05/28 04:40:05;;;;;;;8.25;5.22;;;;;;;;;;2041042;29;20119;-90
2023/05/28 04:41:06;;;;;;;7.18;5.43;;;;;;;;;;2040966;29;20035;-89
2023/05/28 04:42:09;;;;;;;8.45;5.15;;;;;;;;;;2039548;29;20027;-90
2023/05/28 04:43:09;;;;;;;12.40;5.65;;;;;;;;;;2039710;29;20409;-90
2023/05/28 04:44:15;;;;;;;7.78;5.30;;;;;;;;;;2040381;29;20172;-90
2023/05/28 04:45:16;;;;;;;8.13;5.28;;;;;;;;;;2045607;28;20050;-90
2023/05/28 04:46:18;;;;;;;8.68;6.25;;;;;;;;;;2048010;29;20027;-89
2023/05/28 04:47:18;;;;;;;7.22;5.03;;;;;;;;;;2047640;29;20019;-89
2023/05/28 04:48:19;;;;;;;6.13;5.20;;;;;;;;;;2048857;29;20055;-90
2023/05/28 04:49:19;;;;;;;8.52;5.45;;;;;;;;;;2041584;29;20032;-89
2023/05/28 04:50:21;;;;;;;6.80;5.50;;;;;;;;;;2039811;29;20039;-90
2023/05/28 04:51:22;;;;;;;6.75;5.05;;;;;;;;;;2032140;29;20046;-89
2023/05/28 04:52:23;;;;;;;9.10;5.53;;;;;;;;;;2039503;29;20023;-89
2023/05/28 04:53:24;;;;;;;6.55;5.60;;;;;;;;;;2039418;29;20075;-89
2023/05/28 04:54:26;;;;;;;7.28;5.72;;;;;;;;;;2031548;29;20416;-89
2023/05/28 04:55:27;;;;;;;6.32;5.07;;;;;;;;;;2039631;29;20047;-89
2023/05/28 04:56:28;;;;;;;7.80;5.40;;;;;;;;;;2039326;29;20524;-89
2023/05/28 04:57:28;;;;;;;6.28;4.78;;;;;;;;;;2040330;29;20127;-89
2023/05/28 04:58:29;;;;;;;8.13;5.43;;;;;;;;;;2039817;29;20489;-89
2023/05/28 04:59:30;;;;;;;7.28;5.28;;;;;;;;;;2039728;29;20408;-89
2023/05/28 05:00:31;;;;;;;8.10;5.43;;;;;;;;;;2039595;29;20031;-88
2023/05/28 05:01:34;;;;;;;6.82;5.38;;;;;;;;;;2031833;29;20028;-89
2023/05/28 05:02:35;;;;;;;7.45;5.10;;;;;;;;;;2032369;29;20060;-89
2023/05/28 05:03:35;;;;;;;7.85;4.88;;;;;;;;;;2039845;29;20499;-89
2023/05/28 05:04:36;;;;;;;7.65;5.15;;;;;;;;;;2039327;29;20237;-90
2023/05/28 05:05:36;;;;;;;7.43;5.72;;;;;;;;;;2040024;29;20039;-89
2023/05/28 05:06:36;;;;;;;7.85;5.80;;;;;;;;;;2040071;29;20035;-90
2023/05/28 05:07:38;;;;;;;6.43;5.00;;;;;;;;;;2039362;29;20044;-89
2023/05/28 05:08:38;;;;;;;6.72;4.43;;;;;;;;;;1692834;29;10179922;-89
2023/05/28 05:09:39;;;;;;;6.57;5.00;;;;;;;;;;2039896;29;20095;-89
2023/05/28 05:10:42;;;;;;;6.03;4.65;;;;;;;;;;2039980;29;20357;-90
2023/05/28 05:11:42;;;;;;;5.97;4.20;;;;;;;;;;2040947;28;20032;-90
2023/05/28 05:12:42;;;;;;;5.68;3.83;;;;;;;;;;2041184;29;20027;-87
2023/05/28 05:13:43;;;;;;;5.78;4.20;;;;;;;;;;2041517;29;20042;-89
2023/05/28 05:14:44;;;;;;;6.60;5.07;;;;;;;;;;2039917;29;20019;-89
2023/05/28 05:15:45;;;;;;;6.10;4.45;;;;;;;;;;2039907;29;20031;-89
2023/05/28 05:16:45;;;;;;;7.43;4.28;;;;;;;;;;2040222;29;20110;-88
2023/05/28 05:17:46;;;;;;;6.88;4.30;;;;;;;;;;2039536;29;20035;-89
2023/05/28 05:18:47;;;;;;;6.85;4.65;;;;;;;;;;1675994;29;10295433;-89
2023/05/28 05:19:47;;;;;;;6.40;4.13;;;;;;;;;;2023973;29;20111;-88
2023/05/28 05:20:48;;;;;;;4.57;4.10;;;;;;;;;;2039343;29;20113;-89
2023/05/28 05:21:51;;;;;;;6.03;4.22;;;;;;;;;;2038398;29;20039;-89
2023/05/28 05:22:52;;;;;;;6.03;4.70;;;;;;;;;;2031841;29;20051;-90
2023/05/28 05:23:52;;;;;;;6.07;4.82;;;;;;;;;;2039458;29;20054;-89
2023/05/28 05:24:53;;;;;;;8.32;4.68;;;;;;;;;;2039622;29;20079;-89
2023/05/28 05:25:53;;;;;;;8.05;4.63;;;;;;;;;;2039539;29;20610;-89
2023/05/28 05:26:54;;;;;;;4.60;3.88;;;;;;;;;;1695877;29;10098282;-89
2023/05/28 05:27:54;;;;;;;4.60;3.95;;;;;;;;;;2032020;29;20068;-89
2023/05/28 05:28:55;;;;;;;7.13;4.82;;;;;;;;;;2032252;29;20505;-90
2023/05/28 05:29:55;;;;;;;5.53;4.40;;;;;;;;;;2032143;29;20028;-89
2023/05/28 05:30:56;;;;;;;6.22;4.05;;;;;;;;;;2031859;29;20119;-89
2023/05/28 05:31:57;;;;;;;7.10;5.10;;;;;;;;;;2039724;29;20038;-89
2023/05/28 05:32:58;;;;;;;5.82;4.38;;;;;;;;;;2040364;29;20032;-90
2023/05/28 05:33:58;;;;;;;5.25;4.43;;;;;;;;;;2039644;29;20122;-90
2023/05/28 05:34:59;;;;;;;7.90;5.05;;;;;;;;;;2032664;29;20038;-90
2023/05/28 05:35:59;;;;;;;6.53;4.38;;;;;;;;;;1676908;29;10463998;-90
2023/05/28 05:37:00;;;;;;;4.57;3.97;;;;;;;;;;2039666;29;20045;-90
2023/05/28 05:38:09;;;;;;;4.55;4.00;;;;;;;;;;2039074;29;20196;-90
2023/05/28 05:39:30;;;;;;;6.22;4.20;;;;;;;;;;2039131;29;20138;-89
2023/05/28 05:41:02;;;;;;;4.68;3.92;;;;;;;;;;2042252;29;20435;-88
2023/05/28 05:42:03;;;;;;;4.53;3.95;;;;;;;;;;2038391;29;20467;-90
2023/05/28 05:44:27;;;;;;;4.93;3.78;;;;;;;;;;2033715;29;20402;-88
2023/05/28 05:45:27;;;;;;;6.22;4.60;;;;;;;;;;2031355;29;20576;-90
2023/05/28 05:46:27;;;;;;;5.07;3.92;;;;;;;;;;2023386;29;20021;-90
2023/05/28 05:47:28;;;;;;;6.50;4.07;;;;;;;;;;2032562;29;20127;-90
2023/05/28 05:48:29;;;;;;;6.25;4.72;;;;;;;;;;2039036;29;20439;-89
2023/05/28 05:49:29;;;;;;;6.70;3.75;;;;;;;;;;2044182;29;20092;-89
2023/05/28 05:51:47;;;;;;;6.78;4.30;;;;;;;;;;2073395;23;20052;-89
2023/05/28 05:52:47;;;;;;;5.32;4.03;;;;;;;;;;2036903;29;20028;-89
2023/05/28 05:53:48;;;;;;;6.05;3.95;;;;;;;;;;2033470;29;20024;-89
2023/05/28 05:54:49;;;;;;;4.93;3.60;;;;;;;;;;2029788;29;20084;-90
2023/05/28 05:55:50;;;;;;;6.60;3.80;;;;;;;;;;2027136;29;20140;-89
2023/05/28 05:56:52;;;;;;;4.63;3.67;;;;;;;;;;2030385;29;20036;-90
2023/05/28 05:58:01;;;;;;;5.90;3.55;;;;;;;;;;2026084;29;20039;-89
2023/05/28 05:59:05;;;;;;;6.88;3.40;;;;;;;;;;2024960;29;20028;-89
2023/05/28 06:00:08;;;;;;;6.22;3.67;;;;;;;;;;2016250;29;20033;-89
2023/05/28 06:01:08;;;;;;;7.57;5.22;;;;;;;;;;2016168;29;20032;-89
2023/05/28 06:02:09;;;;;;;6.47;4.47;;;;;;;;;;2024402;29;20032;-89
2023/05/28 06:03:11;;;;;;;3.90;3.30;;;;;;;;;;2016112;29;20574;-89
2023/05/28 06:04:12;;;;;;;7.28;5.72;;;;;;;;;;2018846;29;20033;-89
2023/05/28 06:05:15;;;;;;;4.30;3.90;;;;;;;;;;2026583;29;20077;-90
2023/05/28 06:06:15;;;;;;;8.70;4.15;;;;;;;;;;2016121;29;20033;-91
2023/05/28 06:07:16;;;;;;;6.45;3.83;;;;;;;;;;2019180;29;20021;-89
2023/05/28 06:08:16;;;;;;;6.88;5.35;;;;;;;;;;2034309;29;20036;-90
2023/05/28 06:09:17;;;;;;;5.30;3.83;;;;;;;;;;2034499;29;20028;-90
2023/05/28 06:10:18;;;;;;;8.20;5.03;;;;;;;;;;1685389;29;10265113;-90